Time;durP1;ratioP1;P1;durP2;ratioP2;P2;SDS_P1;SDS_P2;PMS_P1;PMS_P2;Temp;Humidity;BMP_temperature;BMP_pressure;BME280_temperature;BME280_humidity;BME280_pressure;Samples;Min_cycle;Max_cycle;Signal;HPM_P1;HPM_P2
2022/10/19 00:01:43;;;;;;;32.23;26.37;;;15.40;99.90;;;;;;6275915;28;20474;-60
2022/10/19 00:04:46;;;;;;;27.07;23.33;;;15.40;99.90;;;;;;6275899;28;20474;-60
2022/10/19 00:07:49;;;;;;;23.40;19.77;;;15.40;99.90;;;;;;6275961;28;20474;-60
2022/10/19 00:10:53;;;;;;;22.63;19.07;;;15.40;99.90;;;;;;6275809;28;20496;-60
2022/10/19 00:13:58;;;;;;;24.90;20.70;;;15.40;99.90;;;;;;6275267;28;20478;-60
2022/10/19 00:17:01;;;;;;;29.13;23.00;;;15.50;99.90;;;;;;6275771;28;20478;-60
2022/10/19 00:20:05;;;;;;;24.17;21.57;;;15.50;99.90;;;;;;6275690;28;20471;-60
2022/10/19 00:23:08;;;;;;;29.47;25.43;;;15.50;99.90;;;;;;6275505;28;20474;-60
2022/10/19 00:26:13;;;;;;;38.10;29.97;;;15.60;99.90;;;;;;6275282;28;20482;-59
2022/10/19 00:29:16;;;;;;;41.50;31.87;;;15.70;99.90;;;;;;6275041;28;20485;-59
2022/10/19 00:32:20;;;;;;;35.20;29.60;;;15.70;99.90;;;;;;6270855;28;20493;-59
2022/10/19 00:35:23;;;;;;;32.43;28.27;;;15.80;99.90;;;;;;6274906;28;20490;-59
2022/10/19 00:38:26;;;;;;;31.63;26.07;;;15.80;99.90;;;;;;6275215;28;20478;-59
2022/10/19 00:41:34;;;;;;;26.90;22.70;;;15.80;99.90;;;;;;6275022;28;20489;-59
2022/10/19 00:45:05;;;;;;;27.03;24.00;;;15.80;99.90;;;;;;6275734;28;20439;-59
2022/10/19 00:48:11;;;;;;;28.97;24.13;;;15.80;99.90;;;;;;6274906;28;20948;-59
2022/10/19 00:51:14;;;;;;;24.67;22.17;;;15.90;99.90;;;;;;6274745;28;20466;-59
2022/10/19 00:54:18;;;;;;;24.57;21.37;;;15.90;99.90;;;;;;6274513;28;20482;-59
2022/10/19 00:57:26;;;;;;;28.80;24.43;;;15.80;99.90;;;;;;6274546;28;20875;-59
2022/10/19 01:00:29;;;;;;;30.80;23.20;;;15.80;99.90;;;;;;6274001;28;20865;-59
2022/10/19 01:03:34;;;;;;;23.73;21.50;;;15.70;99.90;;;;;;6274657;28;20471;-59
2022/10/19 01:06:38;;;;;;;23.43;20.97;;;15.70;99.90;;;;;;6274621;28;20481;-59
2022/10/19 01:09:41;;;;;;;46.93;33.77;;;15.60;99.90;;;;;;6274229;28;20497;-60
2022/10/19 01:13:03;;;;;;;39.30;30.27;;;15.70;99.90;;;;;;6274318;28;20983;-60
2022/10/19 01:16:15;;;;;;;29.90;24.23;;;15.70;99.90;;;;;;6274236;28;20540;-59
2022/10/19 01:20:06;;;;;;;27.53;23.50;;;15.70;99.90;;;;;;6273951;28;20491;-59
2022/10/19 01:23:34;;;;;;;27.90;23.43;;;15.70;99.90;;;;;;6206229;28;20477;-59
2022/10/19 01:27:16;;;;;;;26.33;23.27;;;15.70;99.90;;;;;;6273725;28;20990;-59
2022/10/19 01:30:32;;;;;;;24.87;21.50;;;15.60;99.90;;;;;;6282627;28;20466;-59
2022/10/19 01:33:45;;;;;;;24.40;21.87;;;15.60;99.90;;;;;;6265629;28;20527;-59
2022/10/19 01:37:00;;;;;;;29.57;22.33;;;15.50;99.90;;;;;;6274438;28;20477;-59
2022/10/19 01:40:09;;;;;;;25.03;22.40;;;15.40;99.90;;;;;;6273742;28;20756;-59
2022/10/19 01:43:22;;;;;;;25.03;22.33;;;15.40;99.90;;;;;;6274316;28;20477;-59
2022/10/19 01:46:32;;;;;;;24.93;22.43;;;15.30;99.90;;;;;;6273959;28;20843;-59
2022/10/19 01:49:41;;;;;;;28.03;24.10;;;15.20;99.90;;;;;;6273890;28;20605;-59
2022/10/19 01:52:44;;;;;;;27.83;24.20;;;15.20;99.90;;;;;;6273960;28;20479;-59
2022/10/19 01:55:51;;;;;;;29.03;23.43;;;15.20;99.90;;;;;;6273781;28;20930;-59
2022/10/19 01:58:58;;;;;;;25.57;23.10;;;15.10;99.90;;;;;;6273819;28;20487;-59
2022/10/19 02:02:04;;;;;;;25.50;22.90;;;15.10;99.90;;;;;;6274115;28;20470;-59
2022/10/19 02:05:09;;;;;;;24.47;21.97;;;15.10;99.90;;;;;;6273583;28;20474;-59
2022/10/19 02:08:15;;;;;;;27.60;22.27;;;15.00;99.90;;;;;;6273492;28;20482;-60
2022/10/19 02:11:20;;;;;;;25.73;23.23;;;15.00;99.90;;;;;;6273574;28;20986;-59
2022/10/19 02:14:28;;;;;;;22.93;20.47;;;14.90;99.90;;;;;;6273436;28;20528;-59
2022/10/19 02:17:37;;;;;;;27.97;22.80;;;15.00;99.90;;;;;;6273447;28;20466;-59
2022/10/19 02:20:41;;;;;;;24.30;21.77;;;14.90;99.90;;;;;;6273654;28;20473;-59
2022/10/19 02:23:45;;;;;;;24.87;21.90;;;14.90;99.90;;;;;;6273553;28;20434;-59
2022/10/19 02:26:53;;;;;;;26.97;22.30;;;14.90;99.90;;;;;;6273838;28;20423;-59
2022/10/19 02:29:56;;;;;;;25.10;21.83;;;14.80;99.90;;;;;;6273476;28;20573;-59
2022/10/19 02:33:01;;;;;;;24.70;22.20;;;14.80;99.90;;;;;;6273223;28;20843;-60
2022/10/19 02:36:05;;;;;;;25.40;22.00;;;14.70;99.90;;;;;;6264215;28;20473;-60
2022/10/19 02:39:08;;;;;;;28.50;22.67;;;14.70;99.90;;;;;;6277917;28;20470;-60
2022/10/19 02:42:17;;;;;;;26.83;20.90;;;14.70;99.90;;;;;;6278181;28;20848;-57
2022/10/19 02:45:25;;;;;;;24.80;22.27;;;14.70;99.90;;;;;;6278161;28;20477;-58
2022/10/19 02:48:33;;;;;;;24.37;21.87;;;14.70;99.90;;;;;;6277555;28;20829;-58
2022/10/19 02:51:38;;;;;;;25.93;22.40;;;14.60;99.90;;;;;;6277817;28;20486;-58
2022/10/19 02:54:43;;;;;;;24.10;21.60;;;14.50;99.90;;;;;;6277970;28;20470;-58
2022/10/19 02:57:46;;;;;;;23.90;21.17;;;14.50;99.90;;;;;;6277526;28;20478;-58
2022/10/19 03:00:49;;;;;;;22.87;20.57;;;14.50;99.90;;;;;;6277253;28;20482;-58
2022/10/19 03:03:54;;;;;;;25.10;21.53;;;14.50;99.90;;;;;;6277223;28;20503;-57
2022/10/19 03:06:57;;;;;;;24.97;22.30;;;14.40;99.90;;;;;;6277463;28;20799;-58
2022/10/19 03:10:00;;;;;;;22.87;20.43;;;14.40;99.90;;;;;;6276534;28;20486;-58
2022/10/19 03:13:03;;;;;;;24.43;21.87;;;14.30;99.90;;;;;;6277152;28;20470;-59
2022/10/19 03:16:08;;;;;;;23.87;20.20;;;14.30;99.90;;;;;;6277149;28;20482;-59
2022/10/19 03:19:13;;;;;;;21.00;18.90;;;14.30;99.90;;;;;;6276752;28;20964;-59
2022/10/19 03:22:16;;;;;;;23.53;20.90;;;14.30;99.90;;;;;;6276936;28;20532;-59
2022/10/19 03:25:19;;;;;;;24.17;20.10;;;14.30;99.90;;;;;;6276570;28;20462;-59
2022/10/19 03:28:22;;;;;;;23.27;20.30;;;14.30;99.90;;;;;;6276366;28;21017;-59
2022/10/19 03:31:26;;;;;;;22.27;19.00;;;14.30;99.90;;;;;;6276844;28;20485;-59
2022/10/19 03:34:30;;;;;;;24.63;19.60;;;14.40;99.90;;;;;;6280447;28;20536;-59
2022/10/19 03:37:34;;;;;;;21.97;19.17;;;14.40;99.90;;;;;;6281108;28;20470;-58
2022/10/19 03:40:37;;;;;;;25.67;19.70;;;14.30;99.90;;;;;;6280326;28;20528;-59
2022/10/19 03:43:41;;;;;;;21.40;18.20;;;14.30;99.90;;;;;;6277338;28;20474;-59
2022/10/19 03:46:44;;;;;;;20.07;17.37;;;14.20;99.90;;;;;;6276624;28;20470;-59
2022/10/19 03:49:49;;;;;;;23.33;20.90;;;14.30;99.90;;;;;;6275761;28;20555;-59
2022/10/19 03:52:52;;;;;;;21.13;18.93;;;14.30;99.90;;;;;;6276650;28;20543;-58
2022/10/19 03:56:01;;;;;;;22.10;17.73;;;14.40;99.90;;;;;;6276407;28;20568;-59
2022/10/19 03:59:06;;;;;;;21.40;18.90;;;14.40;99.90;;;;;;6276057;28;21015;-58
2022/10/19 04:02:09;;;;;;;22.53;19.70;;;14.30;99.90;;;;;;6275953;28;20764;-58
2022/10/19 04:05:13;;;;;;;32.30;20.17;;;14.30;99.90;;;;;;6275590;28;20489;-58
2022/10/19 04:08:17;;;;;;;22.63;19.63;;;14.30;99.90;;;;;;6275673;28;20490;-59
2022/10/19 04:11:21;;;;;;;24.40;21.73;;;14.40;99.90;;;;;;6276080;28;20478;-59
2022/10/19 04:14:25;;;;;;;24.73;22.07;;;14.30;99.90;;;;;;6275736;28;20779;-59
2022/10/19 04:17:34;;;;;;;23.93;20.83;;;14.20;99.90;;;;;;6275879;28;20532;-58
2022/10/19 04:20:41;;;;;;;23.50;21.03;;;14.20;99.90;;;;;;6275253;28;20484;-59
2022/10/19 04:23:44;;;;;;;21.80;19.80;;;14.20;99.90;;;;;;6275565;28;20439;-59
2022/10/19 04:26:49;;;;;;;22.43;20.10;;;14.40;99.90;;;;;;6275648;28;20538;-59
2022/10/19 04:29:52;;;;;;;23.30;20.80;;;14.40;99.90;;;;;;6275402;28;20779;-59
2022/10/19 04:32:55;;;;;;;22.57;20.07;;;14.50;99.90;;;;;;6275346;28;20477;-59
2022/10/19 04:36:01;;;;;;;24.20;21.67;;;14.50;99.90;;;;;;6275643;28;20470;-59
2022/10/19 04:39:05;;;;;;;20.47;18.37;;;14.50;99.90;;;;;;6275240;28;20470;-60
2022/10/19 04:42:08;;;;;;;19.60;17.60;;;14.60;99.90;;;;;;6270940;28;20466;-59
2022/10/19 04:45:11;;;;;;;18.90;16.97;;;14.70;99.90;;;;;;6280242;28;20503;-59
2022/10/19 04:48:14;;;;;;;19.27;15.77;;;14.70;99.90;;;;;;6299933;28;20480;-59
2022/10/19 04:51:19;;;;;;;20.27;16.43;;;14.70;99.90;;;;;;6300098;28;20480;-59
2022/10/19 04:54:23;;;;;;;19.97;17.10;;;14.80;99.90;;;;;;6299812;28;20990;-59
2022/10/19 04:57:26;;;;;;;17.97;15.53;;;14.80;99.90;;;;;;6282214;28;20535;-59
2022/10/19 05:00:29;;;;;;;17.87;15.90;;;14.90;99.90;;;;;;6273639;28;20470;-59
2022/10/19 05:03:32;;;;;;;17.43;14.00;;;14.90;99.90;;;;;;6274487;28;20470;-58
2022/10/19 05:06:37;;;;;;;14.83;13.33;;;14.90;99.90;;;;;;6274966;28;20489;-58
2022/10/19 05:09:40;;;;;;;18.20;14.73;;;14.90;99.90;;;;;;6274557;28;20470;-58
2022/10/19 05:12:43;;;;;;;15.17;13.33;;;14.90;99.90;;;;;;6274824;28;20473;-59
2022/10/19 05:15:56;;;;;;;17.00;15.20;;;14.80;99.90;;;;;;6274426;28;20475;-59
2022/10/19 05:18:59;;;;;;;16.37;14.60;;;14.80;99.90;;;;;;6274189;28;20968;-59
2022/10/19 05:22:03;;;;;;;18.70;15.87;;;14.90;99.90;;;;;;6274151;28;20474;-59
2022/10/19 05:25:07;;;;;;;16.60;14.60;;;14.90;99.90;;;;;;6274365;28;20478;-60
2022/10/19 05:28:11;;;;;;;23.87;15.87;;;14.90;99.90;;;;;;6275106;28;20478;-60
2022/10/19 05:31:16;;;;;;;18.03;16.13;;;15.00;99.90;;;;;;6275141;28;20940;-60
2022/10/19 05:34:20;;;;;;;18.50;15.60;;;15.10;99.90;;;;;;6274329;28;20470;-60
2022/10/19 05:37:25;;;;;;;16.40;14.50;;;15.10;99.90;;;;;;6274400;28;20474;-60
2022/10/19 05:40:28;;;;;;;18.80;15.23;;;15.10;99.90;;;;;;6274437;28;20487;-60
2022/10/19 05:43:31;;;;;;;18.80;15.33;;;15.20;99.90;;;;;;6274837;28;20474;-60
2022/10/19 05:46:34;;;;;;;18.23;14.90;;;15.20;99.90;;;;;;6266139;28;20470;-60
2022/10/19 05:49:38;;;;;;;15.80;14.20;;;15.30;99.90;;;;;;6283796;28;20482;-59
2022/10/19 05:52:42;;;;;;;16.00;12.60;;;15.40;99.90;;;;;;6278811;28;20482;-60
2022/10/19 05:55:45;;;;;;;17.67;13.30;;;15.50;99.90;;;;;;6274946;28;20481;-60
2022/10/19 05:58:49;;;;;;;17.87;12.40;;;15.50;99.90;;;;;;6274389;28;20486;-60
2022/10/19 06:01:52;;;;;;;14.60;10.50;;;15.60;99.90;;;;;;6274082;28;20524;-60
2022/10/19 06:04:55;;;;;;;18.10;14.40;;;15.60;99.90;;;;;;6274096;28;20482;-60
2022/10/19 06:08:00;;;;;;;19.53;14.10;;;15.60;99.90;;;;;;6274524;28;20470;-60
2022/10/19 06:11:07;;;;;;;14.37;12.53;;;15.60;99.90;;;;;;6274902;28;20474;-61
2022/10/19 06:14:14;;;;;;;15.03;12.30;;;15.70;99.90;;;;;;6276874;28;20466;-61
2022/10/19 06:17:17;;;;;;;18.20;12.17;;;15.80;99.90;;;;;;6279035;28;20484;-60
2022/10/19 06:20:20;;;;;;;15.93;12.10;;;15.90;99.90;;;;;;6278678;28;20474;-60
2022/10/19 06:23:24;;;;;;;14.37;12.40;;;16.00;99.90;;;;;;6279583;28;20470;-60
2022/10/19 06:26:28;;;;;;;16.50;12.47;;;16.20;99.90;;;;;;6278149;28;20486;-61
2022/10/19 06:29:31;;;;;;;16.63;11.40;;;16.30;99.90;;;;;;6278655;28;20571;-60
2022/10/19 06:32:35;;;;;;;17.27;12.20;;;16.40;99.90;;;;;;6277857;28;20482;-60
2022/10/19 06:35:41;;;;;;;20.17;13.93;;;16.60;99.90;;;;;;6277250;28;20462;-61
2022/10/19 06:38:45;;;;;;;16.93;13.60;;;16.70;99.90;;;;;;6277800;28;20914;-61
2022/10/19 06:41:48;;;;;;;21.73;12.50;;;16.90;99.90;;;;;;6278008;28;20461;-60
2022/10/19 06:44:52;;;;;;;14.70;11.87;;;17.00;99.90;;;;;;6277704;28;20453;-60
2022/10/19 06:47:55;;;;;;;21.17;14.43;;;17.10;99.90;;;;;;6267950;28;20461;-60
2022/10/19 06:50:59;;;;;;;20.63;16.17;;;17.10;99.90;;;;;;6277952;28;20466;-60
2022/10/19 06:54:03;;;;;;;23.60;16.00;;;17.10;99.90;;;;;;6278062;28;21020;-60
2022/10/19 06:57:07;;;;;;;20.53;17.17;;;17.00;99.90;;;;;;6277199;28;20528;-60
2022/10/19 07:01:01;;;;;;;;;;;;;;;;;;;;;
2022/10/19 07:59:54;;;;;;;23.23;19.40;;;20.00;99.90;;;;;;6148707;28;20313;-60
2022/10/19 08:51:32;;;;;;;15.15;13.73;;;32.00;55.80;;;;;;5952908;29;20235;-62
2022/10/19 09:13:20;;;;;;;;;;;;;;;;;;;;;
2022/10/19 09:54:36;;;;;;;11.15;10.35;;;42.70;28.40;;;;;;6125790;28;20240;-65
2022/10/19 09:57:42;;;;;;;11.13;10.15;;;44.60;26.50;;;;;;6228888;28;20255;-65
2022/10/19 10:00:47;;;;;;;11.65;10.65;;;43.80;26.20;;;;;;6228919;28;20236;-65
2022/10/19 10:03:50;;;;;;;11.00;10.00;;;43.40;27.10;;;;;;6228504;28;20578;-64
2022/10/19 10:06:58;;;;;;;10.02;9.02;;;44.80;25.50;;;;;;6227884;28;20690;-65
2022/10/19 10:10:10;;;;;;;9.70;8.88;;;46.10;24.50;;;;;;6228781;28;20281;-63
2022/10/19 10:13:17;;;;;;;9.05;8.45;;;46.00;24.00;;;;;;6228574;28;20669;-63
2022/10/19 10:16:22;;;;;;;10.48;9.68;;;46.60;23.70;;;;;;6228344;28;20246;-63
2022/10/19 10:19:28;;;;;;;12.20;11.25;;;45.90;23.70;;;;;;6227653;28;20239;-62
2022/10/19 10:22:33;;;;;;;9.95;9.20;;;46.70;23.40;;;;;;6227288;28;20228;-63
2022/10/19 10:25:38;;;;;;;9.40;8.60;;;47.50;22.40;;;;;;6214076;28;20220;-62
2022/10/19 10:28:48;;;;;;;9.68;8.98;;;48.20;22.00;;;;;;6202732;28;20233;-63
2022/10/19 10:31:55;;;;;;;8.10;7.47;;;47.40;21.40;;;;;;6203047;28;20233;-64
2022/10/19 10:35:02;;;;;;;11.50;10.70;;;46.90;22.10;;;;;;6202914;28;20229;-63
2022/10/19 10:38:09;;;;;;;10.45;9.50;;;47.40;21.70;;;;;;6202875;28;20251;-63
2022/10/19 10:41:16;;;;;;;10.25;9.52;;;47.90;21.70;;;;;;6201935;28;20229;-64
2022/10/19 10:44:22;;;;;;;10.07;9.27;;;49.30;21.00;;;;;;6202749;28;20234;-64
2022/10/19 10:47:27;;;;;;;10.35;9.45;;;50.20;20.20;;;;;;6202672;28;20240;-64
2022/10/19 10:50:35;;;;;;;9.57;8.82;;;48.90;20.20;;;;;;6202244;28;20234;-64
2022/10/19 10:53:39;;;;;;;9.65;8.85;;;48.80;20.80;;;;;;6220694;28;20236;-64
2022/10/19 10:56:57;;;;;;;10.55;9.75;;;49.20;20.40;;;;;;6247664;28;20203;-66
2022/10/19 11:00:13;;;;;;;10.10;9.40;;;48.80;20.20;;;;;;6251204;28;20235;-65
2022/10/19 11:03:20;;;;;;;9.93;9.13;;;48.10;20.70;;;;;;6241921;28;20378;-63
2022/10/19 11:06:25;;;;;;;10.00;9.23;;;48.50;20.60;;;;;;6250424;28;20236;-63
2022/10/19 11:09:35;;;;;;;11.00;10.13;;;48.90;20.20;;;;;;6250511;28;20227;-64
2022/10/19 11:12:45;;;;;;;10.13;9.43;;;48.00;20.90;;;;;;6250423;28;20231;-63
2022/10/19 11:15:54;;;;;;;9.90;9.13;;;48.80;20.60;;;;;;6250514;28;20749;-63
2022/10/19 11:19:05;;;;;;;10.05;9.07;;;49.20;20.10;;;;;;6250258;28;20247;-64
2022/10/19 11:22:20;;;;;;;10.65;9.90;;;49.10;20.00;;;;;;6250650;28;20265;-62
2022/10/19 11:25:36;;;;;;;10.43;9.65;;;48.90;20.20;;;;;;6238044;28;20232;-64
2022/10/19 11:28:56;;;;;;;9.75;8.98;;;48.40;20.30;;;;;;6226141;28;20341;-64
2022/10/19 11:32:00;;;;;;;10.43;9.50;;;48.40;20.10;;;;;;6230083;28;20231;-64
2022/10/19 11:35:34;;;;;;;8.85;8.05;;;45.70;21.50;;;;;;6231108;28;20299;-63
2022/10/19 11:38:48;;;;;;;9.70;8.90;;;43.20;23.80;;;;;;6229984;28;20235;-63
2022/10/19 11:42:01;;;;;;;10.23;8.43;;;44.70;23.10;;;;;;6237817;28;20206;-62
2022/10/19 11:45:19;;;;;;;8.27;7.65;;;45.30;22.30;;;;;;6250000;28;20237;-62
2022/10/19 11:48:39;;;;;;;9.80;9.07;;;46.30;21.90;;;;;;6249644;28;20285;-63
2022/10/19 11:51:52;;;;;;;8.65;7.78;;;46.80;21.10;;;;;;6249707;28;20259;-62
2022/10/19 11:55:08;;;;;;;8.38;7.57;;;42.60;23.40;;;;;;6249824;28;20227;-62
2022/10/19 11:58:30;;;;;;;8.05;7.30;;;40.70;26.00;;;;;;6249901;28;20229;-62
2022/10/19 12:01:53;;;;;;;7.68;7.07;;;42.40;24.80;;;;;;6250180;28;20804;-61
2022/10/19 12:04:59;;;;;;;8.82;7.68;;;41.10;24.70;;;;;;6250211;28;20236;-62
2022/10/19 12:08:16;;;;;;;7.80;7.20;;;38.60;27.10;;;;;;6245946;28;20239;-61
2022/10/19 12:11:28;;;;;;;6.22;5.82;;;38.60;27.90;;;;;;6249825;28;20239;-63
2022/10/19 12:14:35;;;;;;;7.85;7.25;;;41.30;26.20;;;;;;6249667;28;20223;-63
2022/10/19 12:17:42;;;;;;;7.57;6.85;;;41.60;24.70;;;;;;6248874;28;20294;-62
2022/10/19 12:20:49;;;;;;;8.55;7.68;;;37.00;28.50;;;;;;6248218;28;20215;-63
2022/10/19 12:23:54;;;;;;;7.68;6.90;;;37.10;29.20;;;;;;6248831;28;20214;-63
2022/10/19 12:26:59;;;;;;;7.82;7.05;;;38.70;27.90;;;;;;6249179;28;20212;-63
2022/10/19 12:30:07;;;;;;;7.28;6.68;;;38.40;27.20;;;;;;6248973;28;20275;-62
2022/10/19 12:33:20;;;;;;;8.77;6.13;;;37.30;28.60;;;;;;6249278;28;20528;-62
2022/10/19 12:36:32;;;;;;;6.55;6.05;;;38.20;28.40;;;;;;6249699;28;20235;-63
2022/10/19 12:39:42;;;;;;;9.40;6.32;;;39.00;27.30;;;;;;6244458;28;20234;-61
2022/10/19 12:42:53;;;;;;;8.70;6.20;;;37.90;28.20;;;;;;6249521;28;20242;-62
2022/10/19 12:46:08;;;;;;;6.65;6.05;;;39.70;26.60;;;;;;6249561;28;20231;-63
2022/10/19 12:49:43;;;;;;;6.57;6.07;;;40.50;25.80;;;;;;6248829;28;20570;-63
2022/10/19 12:52:48;;;;;;;5.75;5.30;;;41.50;25.00;;;;;;6248951;28;20676;-64
2022/10/19 12:56:00;;;;;;;5.78;5.07;;;43.40;23.90;;;;;;6248987;28;20243;-63
2022/10/19 12:59:03;;;;;;;6.20;5.70;;;43.30;23.30;;;;;;6249134;28;20293;-64
2022/10/19 13:02:27;;;;;;;5.63;5.03;;;42.10;23.90;;;;;;6249018;28;20233;-64
2022/10/19 13:05:33;;;;;;;5.15;4.60;;;42.40;24.20;;;;;;6251049;28;20228;-62
2022/10/19 13:08:42;;;;;;;5.43;5.03;;;43.50;23.20;;;;;;6253798;28;20244;-61
2022/10/19 13:12:26;;;;;;;4.80;4.40;;;44.00;22.50;;;;;;6253671;28;20274;-64
2022/10/19 13:15:51;;;;;;;5.85;5.35;;;44.40;22.50;;;;;;6194299;28;20696;-65
2022/10/19 13:19:03;;;;;;;5.68;5.20;;;45.30;21.60;;;;;;6221362;28;20233;-64
2022/10/19 13:22:26;;;;;;;5.97;5.47;;;44.20;22.20;;;;;;6246203;28;20235;-61
2022/10/19 13:25:30;;;;;;;6.55;5.55;;;43.60;22.80;;;;;;6240618;28;20568;-61
2022/10/19 13:28:38;;;;;;;6.00;5.50;;;43.10;23.20;;;;;;6228862;28;20238;-64
2022/10/19 13:31:41;;;;;;;6.80;5.28;;;42.00;23.80;;;;;;6228564;28;20235;-63
2022/10/19 13:34:46;;;;;;;8.32;7.63;;;41.50;24.30;;;;;;6228384;28;20243;-64
2022/10/19 13:38:26;;;;;;;7.20;5.85;;;40.20;25.10;;;;;;6228846;28;20264;-64
2022/10/19 13:41:47;;;;;;;5.75;5.25;;;37.70;27.20;;;;;;6222871;28;20241;-63
2022/10/19 13:44:51;;;;;;;6.32;4.97;;;34.70;30.50;;;;;;6228938;28;20608;-64
2022/10/19 13:48:00;;;;;;;9.13;4.72;;;32.20;33.80;;;;;;6228595;28;20219;-64
2022/10/19 13:51:14;;;;;;;6.30;5.53;;;30.30;37.20;;;;;;6228901;28;20243;-63
2022/10/19 13:54:33;;;;;;;5.57;5.07;;;28.50;40.40;;;;;;6236296;28;20251;-61
2022/10/19 13:57:55;;;;;;;5.70;5.10;;;27.40;43.10;;;;;;6252584;28;20250;-62
2022/10/19 14:01:12;;;;;;;6.23;5.43;;;26.10;45.80;;;;;;6252652;28;20549;-61
2022/10/19 14:04:26;;;;;;;5.87;5.27;;;25.40;47.50;;;;;;6252366;28;20346;-61
2022/10/19 14:07:39;;;;;;;5.80;4.10;;;24.70;49.10;;;;;;6252162;28;20228;-61
2022/10/19 14:10:43;;;;;;;5.57;5.17;;;24.30;50.50;;;;;;6251884;28;20266;-61
2022/10/19 14:14:19;;;;;;;5.17;4.67;;;24.10;51.30;;;;;;6251842;28;20290;-61
2022/10/19 14:17:24;;;;;;;5.97;5.33;;;23.90;51.70;;;;;;6241769;28;20226;-61
2022/10/19 14:20:30;;;;;;;6.17;5.67;;;23.60;53.00;;;;;;6242704;28;20268;-61
2022/10/19 14:23:35;;;;;;;6.60;6.00;;;23.50;53.50;;;;;;6227391;28;20225;-61
2022/10/19 14:26:39;;;;;;;5.83;5.23;;;23.50;54.10;;;;;;6249276;28;20663;-61
2022/10/19 14:29:47;;;;;;;5.50;5.10;;;23.30;55.10;;;;;;6251270;28;20232;-61
2022/10/19 14:32:51;;;;;;;6.50;5.57;;;23.10;55.40;;;;;;6248901;28;20585;-61
2022/10/19 14:35:56;;;;;;;7.30;5.90;;;23.00;55.90;;;;;;6251728;28;20609;-62
2022/10/19 14:38:59;;;;;;;7.97;7.00;;;22.80;56.70;;;;;;6251643;28;20244;-60
2022/10/19 14:42:09;;;;;;;7.27;6.57;;;22.70;57.50;;;;;;6253166;28;20232;-57
2022/10/19 14:45:17;;;;;;;6.50;6.00;;;22.40;58.10;;;;;;6252203;28;20279;-58
2022/10/19 14:48:20;;;;;;;6.77;6.17;;;22.30;58.90;;;;;;6250890;28;20318;-58
2022/10/19 14:51:31;;;;;;;6.50;5.90;;;22.20;59.30;;;;;;6251171;28;20535;-58
2022/10/19 14:54:36;;;;;;;6.50;5.47;;;22.10;60.00;;;;;;6251479;28;20228;-58
2022/10/19 14:57:41;;;;;;;5.57;4.93;;;22.00;61.30;;;;;;6251245;28;20243;-58
2022/10/19 15:00:48;;;;;;;6.90;5.80;;;22.00;61.50;;;;;;6250958;28;20229;-58
2022/10/19 15:03:51;;;;;;;5.93;5.43;;;21.90;62.00;;;;;;6226544;28;20240;-59
2022/10/19 15:06:56;;;;;;;5.83;5.30;;;21.90;62.60;;;;;;6225951;28;20233;-59
2022/10/19 15:10:02;;;;;;;6.10;5.50;;;21.80;63.50;;;;;;6225866;28;20244;-60
2022/10/19 15:13:07;;;;;;;5.80;5.30;;;21.70;64.40;;;;;;6248878;28;20574;-59
2022/10/19 15:16:34;;;;;;;8.03;5.37;;;21.50;65.70;;;;;;6226406;28;20229;-59
2022/10/19 15:19:41;;;;;;;5.83;5.13;;;21.30;66.60;;;;;;6232470;28;20571;-59
2022/10/19 15:22:44;;;;;;;7.37;6.27;;;21.20;67.50;;;;;;6250651;28;20240;-61
2022/10/19 15:25:47;;;;;;;5.80;5.30;;;21.20;68.20;;;;;;6250125;28;20232;-61
2022/10/19 15:28:51;;;;;;;7.10;5.57;;;21.20;68.40;;;;;;6249553;28;20657;-60
2022/10/19 15:31:56;;;;;;;5.17;4.67;;;21.20;68.80;;;;;;6249958;28;20667;-60
2022/10/19 15:34:59;;;;;;;5.50;5.00;;;21.20;69.20;;;;;;6243438;28;20231;-60
2022/10/19 15:38:05;;;;;;;5.80;4.90;;;21.20;70.00;;;;;;6232272;28;20237;-59
2022/10/19 15:41:17;;;;;;;10.17;6.07;;;21.20;70.50;;;;;;6249864;28;20699;-59
2022/10/19 15:44:32;;;;;;;7.50;6.03;;;21.00;71.50;;;;;;6230999;28;20221;-60
2022/10/19 15:47:36;;;;;;;5.80;5.20;;;21.00;72.50;;;;;;6241131;28;20233;-58
2022/10/19 15:50:43;;;;;;;6.10;5.50;;;20.90;72.90;;;;;;6236590;28;20226;-58
2022/10/19 15:53:47;;;;;;;6.70;5.00;;;20.80;73.60;;;;;;6234683;28;20220;-58
2022/10/19 15:56:52;;;;;;;8.20;5.57;;;20.80;74.30;;;;;;6240256;28;20531;-57
2022/10/19 15:59:57;;;;;;;8.40;6.90;;;20.60;75.10;;;;;;6250352;28;20424;-57
2022/10/19 16:03:02;;;;;;;5.83;5.43;;;20.40;76.60;;;;;;6249671;28;20240;-57
2022/10/19 16:06:06;;;;;;;7.70;6.00;;;20.40;77.60;;;;;;6249092;28;20235;-57
2022/10/19 16:09:16;;;;;;;6.47;5.30;;;20.30;78.60;;;;;;6248681;28;20242;-58
2022/10/19 16:12:19;;;;;;;6.67;6.03;;;20.30;79.40;;;;;;6249392;28;20342;-58
2022/10/19 16:15:25;;;;;;;6.50;5.90;;;20.30;80.20;;;;;;6249606;28;20689;-57
2022/10/19 16:18:30;;;;;;;6.33;5.73;;;20.30;81.00;;;;;;6249260;28;20232;-57
2022/10/19 16:21:35;;;;;;;5.30;4.80;;;20.30;81.70;;;;;;6245018;28;20248;-57
2022/10/19 16:24:39;;;;;;;6.57;5.93;;;20.20;82.90;;;;;;6248070;28;20788;-56
2022/10/19 16:27:43;;;;;;;7.37;6.20;;;20.10;83.50;;;;;;6249630;28;20566;-56
2022/10/19 16:30:51;;;;;;;6.27;5.67;;;20.10;84.50;;;;;;6249481;28;20235;-57
2022/10/19 16:33:56;;;;;;;6.20;5.70;;;20.00;85.20;;;;;;6249271;28;20708;-57
2022/10/19 16:37:00;;;;;;;6.30;5.70;;;20.00;86.40;;;;;;6242339;28;20716;-57
2022/10/19 16:40:10;;;;;;;5.67;5.07;;;19.90;87.00;;;;;;6250950;28;20758;-59
2022/10/19 16:43:13;;;;;;;6.20;5.70;;;19.70;88.10;;;;;;6241862;28;20225;-57
2022/10/19 16:46:21;;;;;;;9.50;6.80;;;19.70;88.80;;;;;;6229914;28;20225;-57
2022/10/19 16:49:28;;;;;;;5.80;5.20;;;19.70;89.70;;;;;;6229501;28;20236;-57
2022/10/19 16:52:32;;;;;;;10.20;8.23;;;19.70;90.00;;;;;;6229813;28;20251;-61
2022/10/19 16:55:40;;;;;;;7.80;7.00;;;19.70;90.30;;;;;;6229626;28;20265;-57
2022/10/19 16:58:44;;;;;;;8.57;7.43;;;19.70;90.70;;;;;;6229118;28;20229;-58
2022/10/19 17:01:47;;;;;;;8.00;6.90;;;19.70;90.90;;;;;;6229368;28;20248;-58
2022/10/19 17:04:53;;;;;;;8.53;7.67;;;19.70;91.10;;;;;;6229522;28;20232;-59
2022/10/19 17:07:57;;;;;;;9.60;7.27;;;19.70;91.20;;;;;;6228916;28;20233;-59
2022/10/19 17:11:10;;;;;;;8.57;7.27;;;19.60;91.30;;;;;;6228832;28;20244;-61
2022/10/19 17:14:15;;;;;;;7.40;6.67;;;19.60;91.70;;;;;;6228658;28;20316;-62
2022/10/19 17:17:20;;;;;;;7.80;7.00;;;19.60;92.00;;;;;;6229041;28;20237;-59
2022/10/19 17:20:25;;;;;;;7.90;7.10;;;19.60;92.30;;;;;;6228572;28;20557;-58
2022/10/19 17:23:29;;;;;;;6.70;6.00;;;19.50;92.30;;;;;;6228917;28;20237;-59
2022/10/19 17:26:36;;;;;;;6.77;6.10;;;19.50;92.80;;;;;;6228956;28;20225;-58
2022/10/19 17:29:40;;;;;;;7.30;6.60;;;19.50;93.10;;;;;;6228897;28;20252;-59
2022/10/19 17:32:46;;;;;;;7.47;6.77;;;19.40;93.20;;;;;;6229105;28;20217;-58
2022/10/19 17:35:53;;;;;;;7.90;7.20;;;19.40;93.40;;;;;;6213138;28;20537;-60
2022/10/19 17:39:00;;;;;;;10.63;6.27;;;19.40;93.50;;;;;;6228529;28;20319;-59
2022/10/19 17:42:07;;;;;;;7.00;6.27;;;19.40;93.70;;;;;;6228567;28;20233;-59
2022/10/19 17:45:12;;;;;;;6.53;5.90;;;19.50;93.60;;;;;;6228963;28;20685;-59
2022/10/19 17:48:18;;;;;;;7.50;6.90;;;19.50;93.60;;;;;;6228303;28;20299;-59
2022/10/19 17:51:27;;;;;;;7.50;6.17;;;19.40;93.40;;;;;;6228062;28;20300;-60
2022/10/19 17:54:34;;;;;;;6.50;5.47;;;19.40;93.40;;;;;;6254416;28;20681;-60
2022/10/19 17:58:01;;;;;;;5.90;5.30;;;19.30;93.20;;;;;;6243400;28;20534;-59
2022/10/19 18:01:06;;;;;;;4.83;4.43;;;19.20;93.20;;;;;;6240219;28;20229;-63
2022/10/19 18:04:11;;;;;;;5.53;5.03;;;19.00;93.50;;;;;;6240155;28;20228;-58
2022/10/19 18:07:17;;;;;;;8.80;7.20;;;18.80;93.90;;;;;;6225456;28;20224;-58
2022/10/19 18:10:22;;;;;;;6.73;5.97;;;18.70;94.00;;;;;;6252344;28;20311;-58
2022/10/19 18:13:26;;;;;;;6.37;5.73;;;18.70;94.30;;;;;;6252621;28;20240;-58
2022/10/19 18:16:35;;;;;;;7.00;6.30;;;18.60;94.60;;;;;;6252617;28;20224;-58
2022/10/19 18:19:39;;;;;;;7.03;6.43;;;18.60;94.90;;;;;;6252371;28;20239;-59
2022/10/19 18:22:46;;;;;;;6.37;5.87;;;18.50;95.00;;;;;;6252274;28;20318;-58
2022/10/19 18:25:51;;;;;;;11.63;5.87;;;18.50;95.50;;;;;;6252164;28;20378;-58
2022/10/19 18:28:58;;;;;;;6.23;5.53;;;18.50;95.70;;;;;;6251849;28;20244;-58
2022/10/19 18:32:03;;;;;;;9.43;7.00;;;18.50;96.00;;;;;;6243045;28;20225;-58
2022/10/19 18:35:10;;;;;;;5.97;5.47;;;18.40;96.30;;;;;;6251605;28;20221;-58
2022/10/19 18:38:17;;;;;;;7.73;5.70;;;18.30;96.80;;;;;;6251194;28;20228;-58
2022/10/19 18:41:22;;;;;;;8.10;7.30;;;18.20;97.00;;;;;;6231662;28;20225;-59
2022/10/19 18:44:27;;;;;;;10.67;7.53;;;18.20;97.30;;;;;;6246904;28;20812;-58
2022/10/19 18:47:36;;;;;;;9.50;7.00;;;18.20;97.70;;;;;;6241543;28;20527;-60